createdAt,value
2019-04-01T00:00:03.143Z,56.43
2019-04-01T00:01:02.971Z,56.07
2019-04-01T00:02:02.976Z,60.32
2019-04-01T00:03:02.797Z,54.45
2019-04-01T00:04:02.737Z,60.19
2019-04-01T00:05:02.805Z,56.19
2019-04-01T00:06:02.661Z,64.24
2019-04-01T00:07:03.560Z,59.41
2019-04-01T00:08:03.395Z,56.18
2019-04-01T00:09:03.552Z,59.11
2019-04-01T00:10:03.724Z,56.12
2019-04-01T00:11:03.282Z,57.6
2019-04-01T00:12:03.535Z,61.35
2019-04-01T00:13:03.332Z,60.96
2019-04-01T00:14:03.685Z,61.95
2019-04-01T00:15:03.376Z,64.24
2019-04-01T00:16:03.506Z,55.5
2019-04-01T00:17:03.170Z,58.99
2019-04-01T00:18:03.026Z,54.86
2019-04-01T00:19:03.750Z,57.12
2019-04-01T00:20:03.375Z,53.89
2019-04-01T00:21:02.998Z,60.24
2019-04-01T00:22:03.068Z,63.99
2019-04-01T00:23:03.307Z,60.86
2019-04-01T00:24:03.195Z,56.14
2019-04-01T00:25:02.674Z,58.88
2019-04-01T00:26:02.932Z,50.48
2019-04-01T00:27:03.138Z,57.48
2019-04-01T00:28:02.497Z,58.4
2019-04-01T00:29:02.974Z,55.03
2019-04-01T00:30:02.818Z,55.28
2019-04-01T00:31:02.804Z,61.1
2019-04-01T00:32:02.741Z,53.88
2019-04-01T00:33:02.800Z,60.29
2019-04-01T00:34:02.619Z,62.29
2019-04-01T00:35:02.844Z,58.69
2019-04-01T00:36:02.815Z,61.09
2019-04-01T00:37:03.653Z,55.35
2019-04-01T00:38:03.315Z,53.38
2019-04-01T00:39:03.509Z,64.68
2019-04-01T00:40:03.321Z,64.05
2019-04-01T00:41:03.336Z,61.37
2019-04-01T00:42:03.253Z,59.59
2019-04-01T00:43:03.405Z,64.06
2019-04-01T00:44:03.285Z,64.06
2019-04-01T00:45:03.590Z,62.1
2019-04-01T00:46:02.995Z,62.56
2019-04-01T00:47:03.202Z,62.56
2019-04-01T00:48:03.266Z,60.98
2019-04-01T00:49:03.144Z,62.46
2019-04-01T00:50:02.960Z,60.4
2019-04-01T00:51:03.064Z,61.54
2019-04-01T00:52:02.833Z,63.28
2019-04-01T00:53:02.900Z,61.77
2019-04-01T00:54:02.984Z,63.58
2019-04-01T00:55:03.070Z,63.96
2019-04-01T00:56:02.888Z,62.78
2019-04-01T00:57:03.217Z,57.68
2019-04-01T00:58:03.093Z,51.78
2019-04-01T00:59:02.669Z,64.24
2019-04-01T01:00:02.802Z,63.85
2019-04-01T01:01:02.878Z,66.77
2019-04-01T01:02:03.646Z,66.89
2019-04-01T01:03:03.695Z,67.21
2019-04-01T01:04:03.520Z,55.55
2019-04-01T01:05:03.525Z,61.21
2019-04-01T01:06:03.530Z,66.06
2019-04-01T01:07:03.284Z,70.31
2019-04-01T01:08:03.276Z,66.11
2019-04-01T01:09:03.526Z,67.42
2019-04-01T01:10:03.229Z,63.07
2019-04-01T01:11:03.308Z,63.34
2019-04-01T01:12:03.359Z,57.65
2019-04-01T01:13:02.951Z,60.71
2019-04-01T01:14:03.127Z,62.79
2019-04-01T01:15:03.031Z,62.04
2019-04-01T01:16:03.019Z,65.88
2019-04-01T01:17:02.842Z,65.83
2019-04-01T01:18:03.089Z,68.39
2019-04-01T01:19:02.996Z,67.09
2019-04-01T01:20:03.198Z,64.59
2019-04-01T01:21:03.077Z,66.28
2019-04-01T01:22:03.228Z,69.48
2019-04-01T01:23:03.232Z,66.35
2019-04-01T01:24:02.872Z,59.51
2019-04-01T01:25:03.045Z,57.28
2019-04-01T01:26:02.839Z,60.62
2019-04-01T01:27:02.837Z,67.78
2019-04-01T01:28:02.907Z,58.87
2019-04-01T01:29:02.839Z,65.64
2019-04-01T01:30:02.709Z,63.68
2019-04-01T01:31:02.847Z,70.75
2019-04-01T01:32:02.814Z,70.75
2019-04-01T01:33:02.773Z,60.06
2019-04-01T01:34:03.573Z,63.31
2019-04-01T01:35:02.842Z,63.31
2019-04-01T01:36:03.467Z,60.54
2019-04-01T01:37:03.439Z,59.92
2019-04-01T01:38:03.544Z,59.92
2019-04-01T01:39:03.421Z,58.59
2019-04-01T01:40:03.344Z,67.76
2019-04-01T01:41:03.087Z,67.42
2019-04-01T01:42:03.083Z,64.36
2019-04-01T01:43:03.243Z,66.74
2019-04-01T01:44:03.073Z,63.75
2019-04-01T01:45:03.075Z,65.82
2019-04-01T01:46:03.345Z,60.33
2019-04-01T01:47:03.251Z,61.98
2019-04-01T01:48:02.915Z,61.32
2019-04-01T01:49:03.151Z,68.48
2019-04-01T01:50:02.971Z,60.49
2019-04-01T01:51:03.077Z,63.14
2019-04-01T01:52:02.945Z,65.93
2019-04-01T01:53:02.974Z,65.98
2019-04-01T01:54:02.792Z,69.99
2019-04-01T01:55:03.056Z,68.26
2019-04-01T01:56:03.016Z,61.72
2019-04-01T01:57:02.866Z,62.55
2019-04-01T01:58:02.694Z,64.82
2019-04-01T01:59:02.926Z,66.54
2019-04-01T02:00:03.609Z,67.54
2019-04-01T02:01:03.676Z,71.41
2019-04-01T02:02:02.804Z,68.61
2019-04-01T02:03:03.371Z,65.31
2019-04-01T02:04:03.286Z,67.24
2019-04-01T02:05:03.408Z,68.52
2019-04-01T02:06:03.279Z,68.09
2019-04-01T02:07:03.080Z,68.58
2019-04-01T02:08:03.402Z,67.41
2019-04-01T02:09:03.099Z,65.55
2019-04-01T02:10:03.221Z,64.04
2019-04-01T02:11:03.182Z,72.96
2019-04-01T02:12:02.996Z,68.69
2019-04-01T02:13:03.233Z,65.95
2019-04-01T02:14:02.975Z,63.23
2019-04-01T02:15:03.034Z,71.81
2019-04-01T02:16:02.764Z,66.82
2019-04-01T02:17:02.899Z,66.17
2019-04-01T02:18:02.906Z,66.17
2019-04-01T02:19:03.462Z,59.62
2019-04-01T02:20:02.895Z,59.62
2019-04-01T02:21:02.753Z,64.73
2019-04-01T02:22:03.572Z,69.36
2019-04-01T02:23:03.006Z,69.36
2019-04-01T02:24:03.589Z,62.12
2019-04-01T02:25:03.080Z,68.45
2019-04-01T02:26:02.810Z,66.08
2019-04-01T02:27:02.655Z,61.96
2019-04-01T02:28:02.745Z,62.44
2019-04-01T02:29:03.423Z,68.02
2019-04-01T02:30:02.693Z,66.72
2019-04-01T02:31:02.676Z,61.11
2019-04-01T02:32:02.566Z,69.13
2019-04-01T02:33:03.436Z,64.09
2019-04-01T02:34:03.709Z,62.52
2019-04-01T02:35:03.305Z,60.76
2019-04-01T02:36:03.251Z,58.24
2019-04-01T02:37:03.189Z,62.14
2019-04-01T02:38:02.663Z,56.82
2019-04-01T02:39:03.383Z,54.39
2019-04-01T02:40:03.290Z,56.65
2019-04-01T02:41:03.414Z,62.89
2019-04-01T02:42:03.182Z,61.98
2019-04-01T02:43:02.966Z,67
2019-04-01T02:44:03.071Z,61.63
2019-04-01T02:45:02.994Z,62.98
2019-04-01T02:46:02.950Z,68.06
2019-04-01T02:47:02.876Z,62.52
2019-04-01T02:48:02.788Z,72.11
2019-04-01T02:49:03.010Z,68.87
2019-04-01T02:50:03.404Z,70.79
2019-04-01T02:51:02.886Z,64.82
2019-04-01T02:52:02.911Z,55.21
2019-04-01T02:53:02.461Z,65
2019-04-01T02:54:02.789Z,69.08
2019-04-01T02:55:06.527Z,66.79
2019-04-01T02:56:03.224Z,64.54
2019-04-01T02:57:03.463Z,59.14
2019-04-01T02:58:02.802Z,65.15
2019-04-01T02:59:03.567Z,60.91
2019-04-01T03:00:03.608Z,71.41
2019-04-01T03:01:03.537Z,69.01
2019-04-01T03:02:03.453Z,75.12
2019-04-01T03:03:03.512Z,74.98
2019-04-01T03:04:03.321Z,65.03
2019-04-01T03:05:03.438Z,65.59
2019-04-01T03:06:03.016Z,59.34
2019-04-01T03:07:03.228Z,69.75
2019-04-01T03:08:03.351Z,61.79
2019-04-01T03:09:03.430Z,61.79
2019-04-01T03:10:02.941Z,61.08
2019-04-01T03:11:03.101Z,63.75
2019-04-01T03:12:03.010Z,63.75
2019-04-01T03:13:03.306Z,62.09
2019-04-01T03:14:02.817Z,66.01
2019-04-01T03:15:02.998Z,66.01
2019-04-01T03:16:03.013Z,59.39
2019-04-01T03:17:03.051Z,63.1
2019-04-01T03:18:02.706Z,56.92
2019-04-01T03:19:02.851Z,54.36
2019-04-01T03:20:03.102Z,61.16
2019-04-01T03:21:02.706Z,58.91
2019-04-01T03:22:02.921Z,62.11
2019-04-01T03:23:03.458Z,55.39
2019-04-01T03:24:02.493Z,50.39
2019-04-01T03:25:02.471Z,56.08
2019-04-01T03:26:03.411Z,59.45
2019-04-01T03:27:03.584Z,63.28
2019-04-01T03:28:03.614Z,62.52
2019-04-01T03:29:03.444Z,56.24
2019-04-01T03:30:03.227Z,57.36
2019-04-01T03:31:03.226Z,62.56
2019-04-01T03:32:03.132Z,63.33
2019-04-01T03:33:03.676Z,64.79
2019-04-01T03:34:03.002Z,55.98
2019-04-01T03:35:02.983Z,60.86
2019-04-01T03:36:02.968Z,60.81
2019-04-01T03:37:03.112Z,59.24
2019-04-01T03:38:02.877Z,64.41
2019-04-01T03:39:02.836Z,64.11
2019-04-01T03:40:02.937Z,63.01
2019-04-01T03:41:02.772Z,63.08
2019-04-01T03:42:03.596Z,69.14
2019-04-01T03:43:03.594Z,69.14
2019-04-01T03:44:03.620Z,57.63
2019-04-01T03:45:02.207Z,61.88
2019-04-01T03:46:02.865Z,65.9
2019-04-01T03:47:03.535Z,68.33
2019-04-01T03:48:03.371Z,70.79
2019-04-01T03:49:03.454Z,71.1
2019-04-01T03:50:03.522Z,65.71
2019-04-01T03:51:03.317Z,70.21
2019-04-01T03:52:03.560Z,66.62
2019-04-01T03:53:02.989Z,71.75
2019-04-01T03:54:03.329Z,70.69
2019-04-01T03:55:02.972Z,71.69
2019-04-01T03:56:03.063Z,62.78
2019-04-01T03:57:02.857Z,64.81
2019-04-01T03:58:02.895Z,57.92
2019-04-01T03:59:02.936Z,66.69
2019-04-01T04:00:03.036Z,66.69
2019-04-01T04:01:02.689Z,55.28
2019-04-01T04:02:02.725Z,59.55
2019-04-01T04:03:03.163Z,59.55
2019-04-01T04:04:02.855Z,55.91
2019-04-01T04:05:02.879Z,58.46
2019-04-01T04:06:03.515Z,56.05
2019-04-01T04:07:03.454Z,55.52
2019-04-01T04:08:03.502Z,60.17
2019-04-01T04:09:03.466Z,60.32
2019-04-01T04:10:03.692Z,62.41
2019-04-01T04:11:03.525Z,63.84
2019-04-01T04:12:03.230Z,65.61
2019-04-01T04:13:03.166Z,66.3
2019-04-01T04:14:03.288Z,67.21
2019-04-01T04:15:03.383Z,65.81
2019-04-01T04:16:03.273Z,66.69
2019-04-01T04:17:02.987Z,70.68
2019-04-01T04:18:03.454Z,59.48
2019-04-01T04:19:03.111Z,59.89
2019-04-01T04:20:02.966Z,66.09
2019-04-01T04:21:03.043Z,57.29
2019-04-01T04:22:02.698Z,64.67
2019-04-01T04:23:02.950Z,73.88
2019-04-01T04:24:02.896Z,68.66
2019-04-01T04:25:02.854Z,62.76
2019-04-01T04:26:02.689Z,63.26
2019-04-01T04:27:02.860Z,61.21
2019-04-01T04:28:03.603Z,62.01
2019-04-01T04:29:02.918Z,65.51
2019-04-01T04:30:03.658Z,65.76
2019-04-01T04:31:02.595Z,64.06
2019-04-01T04:32:03.565Z,62.46
2019-04-01T04:33:03.598Z,63.44
2019-04-01T04:34:02.794Z,60.42
2019-04-01T04:35:03.645Z,65.51
2019-04-01T04:36:03.255Z,72.38
2019-04-01T04:37:02.945Z,65.79
2019-04-01T04:38:03.462Z,67.44
2019-04-01T04:39:03.057Z,68.52
2019-04-01T04:40:03.392Z,63.89
2019-04-01T04:41:03.117Z,71.76
2019-04-01T04:42:03.395Z,69.93
2019-04-01T04:43:03.268Z,74.28
2019-04-01T04:44:03.164Z,67.92
2019-04-01T04:45:03.141Z,69.63
2019-04-01T04:46:03.209Z,76.74
2019-04-01T04:47:03.002Z,66
2019-04-01T04:48:03.113Z,66
2019-04-01T04:49:02.988Z,75.54
2019-04-01T04:50:02.714Z,70.97
2019-04-01T04:51:02.836Z,70.97
2019-04-01T04:52:04.544Z,68.55
2019-04-01T04:53:02.991Z,68.55
2019-04-01T04:54:02.632Z,73.13
2019-04-01T04:55:03.478Z,69.74
2019-04-01T04:56:03.560Z,66.32
2019-04-01T04:57:02.693Z,69.94
2019-04-01T04:58:03.507Z,67.49
2019-04-01T04:59:03.351Z,74.66
2019-04-01T05:00:03.770Z,70.15
2019-04-01T05:01:03.308Z,71.24
2019-04-01T05:02:03.423Z,68.92
2019-04-01T05:03:03.132Z,67.48
2019-04-01T05:04:03.129Z,73.33
2019-04-01T05:05:03.250Z,87.31
2019-04-01T05:06:03.456Z,75.35
2019-04-01T05:07:03.079Z,75.3
2019-04-01T05:08:03.476Z,76.21
2019-04-01T05:09:03.481Z,74.45
2019-04-01T05:10:03.704Z,79.75
2019-04-01T05:11:03.154Z,73.07
2019-04-01T05:12:03.126Z,68.85
2019-04-01T05:13:03.405Z,76.25
2019-04-01T05:14:03.257Z,76.41
2019-04-01T05:15:03.502Z,68.39
2019-04-01T05:16:03.168Z,65.27
2019-04-01T05:17:03.447Z,77.41
2019-04-01T05:18:03.215Z,73.15
2019-04-01T05:19:03.273Z,67.5
2019-04-01T05:20:03.298Z,67.57
2019-04-01T05:21:03.197Z,73.28
2019-04-01T05:22:03.069Z,82.97
2019-04-01T05:23:03.117Z,69.06
2019-04-01T05:24:03.214Z,74.41
2019-04-01T05:25:02.934Z,71.87
2019-04-01T05:26:02.960Z,76.79
2019-04-01T05:27:02.872Z,68.95
2019-04-01T05:28:03.145Z,73.01
2019-04-01T05:29:02.758Z,64.11
2019-04-01T05:30:02.840Z,63.87
2019-04-01T05:31:02.748Z,66.54
2019-04-01T05:32:02.826Z,63.72
2019-04-01T05:33:02.522Z,72.97
2019-04-01T05:34:02.699Z,77.68
2019-04-01T05:35:03.583Z,69.99
2019-04-01T05:36:03.398Z,67.26
2019-04-01T05:37:02.673Z,67.26
2019-04-01T05:38:03.360Z,71.52
2019-04-01T05:39:03.444Z,67.41
2019-04-01T05:40:03.307Z,67.41
2019-04-01T05:41:03.410Z,86.56
2019-04-01T05:42:03.374Z,65.16
2019-04-01T05:43:03.128Z,82.43
2019-04-01T05:44:03.370Z,82.43
2019-04-01T05:45:03.200Z,71.05
2019-04-01T05:46:03.132Z,72.73
2019-04-01T05:47:02.982Z,69.76
2019-04-01T05:48:03.236Z,72.16
2019-04-01T05:49:02.851Z,69.47
2019-04-01T05:50:03.154Z,71.08
2019-04-01T05:51:02.968Z,74.98
2019-04-01T05:52:02.776Z,71.13
2019-04-01T05:53:02.859Z,69.78
2019-04-01T05:54:02.929Z,84.15
2019-04-01T05:55:02.923Z,77.49
2019-04-01T05:56:02.743Z,63.59
2019-04-01T05:57:02.755Z,72.19
2019-04-01T05:58:02.748Z,66.39
2019-04-01T05:59:03.404Z,66.39
2019-04-01T06:00:02.624Z,64.48
2019-04-01T06:01:02.975Z,63.89
2019-04-01T06:02:03.546Z,64.96
2019-04-01T06:03:02.644Z,70.88
2019-04-01T06:04:03.488Z,65.32
2019-04-01T06:05:03.422Z,65.46
2019-04-01T06:06:03.870Z,66.96
2019-04-01T06:07:03.439Z,67.59
2019-04-01T06:08:03.426Z,69.36
2019-04-01T06:09:03.029Z,73.78
2019-04-01T06:10:03.092Z,71.84
2019-04-01T06:11:03.384Z,66.53
2019-04-01T06:12:03.175Z,76.97
2019-04-01T06:13:03.030Z,71.16
2019-04-01T06:14:02.952Z,73.9
2019-04-01T06:15:03.277Z,71.19
2019-04-01T06:16:03.171Z,63.71
2019-04-01T06:17:03.051Z,69.28
2019-04-01T06:18:02.963Z,65.59
2019-04-01T06:19:05.826Z,69.16
2019-04-01T06:20:03.122Z,65.52
2019-04-01T06:21:02.731Z,70.05
2019-04-01T06:22:03.099Z,69.44
2019-04-01T06:23:02.861Z,69.92
2019-04-01T06:24:02.954Z,75.38
2019-04-01T06:25:02.741Z,64.48
2019-04-01T06:26:02.992Z,59.89
2019-04-01T06:27:02.746Z,64.91
2019-04-01T06:28:02.930Z,64.91
2019-04-01T06:29:03.422Z,63.34
2019-04-01T06:30:03.706Z,64.35
2019-04-01T06:31:02.530Z,64.35
2019-04-01T06:32:02.714Z,72.85
2019-04-01T06:33:03.306Z,65.81
2019-04-01T06:34:03.276Z,64.39
2019-04-01T06:35:03.707Z,67.38
2019-04-01T06:36:03.324Z,62.97
2019-04-01T06:37:02.973Z,62.36
2019-04-01T06:38:03.266Z,68.08
2019-04-01T06:39:03.533Z,65.47
2019-04-01T06:40:03.092Z,75.16
2019-04-01T06:41:03.340Z,62.01
2019-04-01T06:42:03.091Z,59.64
2019-04-01T06:43:03.019Z,61.47
2019-04-01T06:44:02.969Z,63.89
2019-04-01T06:45:03.354Z,72.01
2019-04-01T06:46:03.727Z,64.09
2019-04-01T06:47:03.096Z,63.55
2019-04-01T06:48:02.762Z,62.12
2019-04-01T06:49:03.651Z,58.25
2019-04-01T06:50:02.804Z,71.5
2019-04-01T06:51:01.630Z,57.46
2019-04-01T06:52:02.952Z,58.89
2019-04-01T06:53:02.708Z,59.5
2019-04-01T06:54:02.715Z,59.78
2019-04-01T06:55:02.623Z,57.05
2019-04-01T06:56:02.721Z,63.42
2019-04-01T06:57:02.524Z,52.56
2019-04-01T06:58:02.712Z,61.31
2019-04-01T06:59:02.829Z,50.12
2019-04-01T07:00:03.546Z,55.85
2019-04-01T07:01:03.279Z,59.69
2019-04-01T07:02:03.405Z,58.91
2019-04-01T07:03:03.496Z,52.11
2019-04-01T07:04:03.414Z,54.86
2019-04-01T07:05:03.300Z,58.76
2019-04-01T07:06:03.364Z,53.78
2019-04-01T07:07:17.681Z,52.79
2019-04-01T07:08:03.177Z,51.18
2019-04-01T07:09:03.233Z,56.84
2019-04-01T07:10:03.542Z,55.71
2019-04-01T07:11:02.986Z,49.69
2019-04-01T07:12:02.890Z,49.71
2019-04-01T07:13:03.368Z,53.88
2019-04-01T07:14:02.837Z,54.19
2019-04-01T07:15:02.892Z,57.25
2019-04-01T07:16:14.595Z,49.31
2019-04-01T07:17:02.856Z,49.31
2019-04-01T07:18:02.990Z,54.97
2019-04-01T07:19:02.752Z,52.95
2019-04-01T07:20:02.928Z,52.95
2019-04-01T07:21:02.846Z,53.19
2019-04-01T07:22:02.826Z,53.25
2019-04-01T07:23:02.902Z,50.66
2019-04-01T07:24:02.811Z,50.66
2019-04-01T07:25:03.748Z,48.26
2019-04-01T07:26:03.500Z,50.21
2019-04-01T07:27:03.634Z,48.66
2019-04-01T07:28:03.674Z,52.24
2019-04-01T07:29:03.594Z,55.31
2019-04-01T07:30:03.612Z,56.72
2019-04-01T07:31:03.275Z,50.81
2019-04-01T07:32:03.258Z,47.54
2019-04-01T07:33:03.443Z,51.11
2019-04-01T07:34:03.467Z,48.85
2019-04-01T07:35:03.631Z,50.53
2019-04-01T07:36:03.391Z,52.36
2019-04-01T07:37:03.572Z,47.13
2019-04-01T07:38:03.404Z,50.75
2019-04-01T07:39:03.106Z,49.81
2019-04-01T07:40:03.346Z,50.09
2019-04-01T07:41:03.144Z,51.81
2019-04-01T07:42:03.168Z,50.88
2019-04-01T07:43:03.137Z,51.68
2019-04-01T07:44:03.231Z,51.44
2019-04-01T07:45:03.015Z,49.43
2019-04-01T07:46:02.923Z,45.65
2019-04-01T07:47:02.842Z,49.59
2019-04-01T07:48:03.202Z,49.39
2019-04-01T07:49:02.939Z,52.02
2019-04-01T07:50:02.969Z,49.52
2019-04-01T07:51:02.991Z,47.58
2019-04-01T07:52:02.949Z,47.04
2019-04-01T07:53:02.895Z,51.88
2019-04-01T07:54:02.802Z,66.21
2019-04-01T07:55:03.005Z,48.51
2019-04-01T07:56:02.871Z,50.52
2019-04-01T07:57:02.665Z,44.68
2019-04-01T07:58:03.509Z,46.02
2019-04-01T07:59:02.754Z,50.19
2019-04-01T08:00:03.425Z,43.94
2019-04-01T08:01:02.815Z,50.81
2019-04-01T08:02:03.414Z,43.92
2019-04-01T08:03:03.616Z,45.31
2019-04-01T08:04:03.294Z,50.45
2019-04-01T08:05:03.735Z,44.94
2019-04-01T08:06:03.588Z,44.19
2019-04-01T08:07:03.061Z,50.41
2019-04-01T08:08:03.557Z,50.41
2019-04-01T08:09:03.088Z,43.26
2019-04-01T08:10:03.022Z,48.34
2019-04-01T08:11:03.206Z,48.34
2019-04-01T08:12:03.161Z,45.89
2019-04-01T08:13:03.163Z,43.14
2019-04-01T08:14:02.924Z,49.89
2019-04-01T08:15:03.043Z,50.76
2019-04-01T08:16:02.912Z,43.38
2019-04-01T08:17:03.049Z,45.44
2019-04-01T08:18:02.638Z,53.88
2019-04-01T08:19:02.913Z,46.12
2019-04-01T08:20:03.682Z,48.12
2019-04-01T08:21:02.899Z,46.49
2019-04-01T08:22:04.175Z,46.04
2019-04-01T08:23:02.581Z,44.05
2019-04-01T08:24:03.505Z,46.07
2019-04-01T08:25:02.833Z,43.21
2019-04-01T08:26:03.330Z,47.14
2019-04-01T08:27:03.304Z,47.2
2019-04-01T08:28:03.392Z,46.72
2019-04-01T08:29:03.204Z,54.96
2019-04-01T08:30:03.379Z,45.18
2019-04-01T08:31:03.147Z,46.69
2019-04-01T08:32:03.271Z,45.16
2019-04-01T08:33:03.030Z,47.35
2019-04-01T08:34:03.015Z,47.1
2019-04-01T08:35:02.912Z,48.65
2019-04-01T08:36:03.204Z,38.92
2019-04-01T08:37:03.152Z,44.01
2019-04-01T08:38:02.758Z,45.59
2019-04-01T08:39:02.966Z,45.03
2019-04-01T08:40:02.909Z,40.98
2019-04-01T08:41:02.900Z,44.82
2019-04-01T08:42:03.762Z,46.81
2019-04-01T08:43:02.890Z,40.56
2019-04-01T08:44:03.393Z,45.9
2019-04-01T08:45:02.700Z,45.21
2019-04-01T08:46:03.743Z,42.15
2019-04-01T08:47:03.780Z,45.52
2019-04-01T08:48:03.409Z,49.81
2019-04-01T08:49:03.618Z,47.59
2019-04-01T08:50:03.588Z,45.86
2019-04-01T08:51:03.483Z,44.88
2019-04-01T08:52:03.531Z,46.54
2019-04-01T08:53:03.371Z,42.93
2019-04-01T08:54:03.229Z,42.93
2019-04-01T08:55:03.285Z,46.31
2019-04-01T08:56:03.394Z,46.31
2019-04-01T08:57:03.134Z,44.23
2019-04-01T08:58:03.222Z,40.12
2019-04-01T08:59:03.108Z,40.12
2019-04-01T09:00:02.984Z,45.65
2019-04-01T09:01:03.058Z,45.65
2019-04-01T09:02:16.691Z,39.2
2019-04-01T09:03:02.854Z,41.42
2019-04-01T09:04:02.869Z,47.92
2019-04-01T09:05:02.957Z,44.71
2019-04-01T09:06:03.679Z,41.92
2019-04-01T09:07:02.728Z,43.21
2019-04-01T09:08:03.834Z,43.66
2019-04-01T09:09:03.498Z,42.15
2019-04-01T09:10:03.600Z,42.98
2019-04-01T09:11:03.631Z,43.44
2019-04-01T09:12:03.330Z,40.96
2019-04-01T09:13:03.459Z,43.71
2019-04-01T09:14:03.295Z,41.02
2019-04-01T09:15:03.744Z,39.19
2019-04-01T09:16:03.491Z,46.05
2019-04-01T09:17:03.419Z,42.72
2019-04-01T09:18:03.424Z,39.76
2019-04-01T09:19:02.931Z,57.02
2019-04-01T09:20:03.396Z,44.84
2019-04-01T09:21:03.193Z,40.86
2019-04-01T09:22:03.114Z,44.25
2019-04-01T09:23:03.239Z,46.28
2019-04-01T09:24:03.070Z,39.81
2019-04-01T09:25:02.938Z,40.65
2019-04-01T09:26:03.085Z,41.24
2019-04-01T09:27:03.082Z,37.6
2019-04-01T09:28:03.170Z,44.49
2019-04-01T09:29:02.681Z,43.14
2019-04-01T09:30:03.664Z,47.84
2019-04-01T09:31:02.950Z,39.85
2019-04-01T09:32:02.621Z,41.09
2019-04-01T09:33:02.747Z,40.85
2019-04-01T09:34:03.440Z,41.15
2019-04-01T09:35:03.671Z,43.1
2019-04-01T09:36:03.339Z,39.75
2019-04-01T09:37:03.552Z,38.48
2019-04-01T09:38:03.448Z,38.41
2019-04-01T09:39:03.497Z,38.21
2019-04-01T09:40:03.514Z,44.99
2019-04-01T09:41:02.947Z,40.31
2019-04-01T09:42:03.385Z,40.89
2019-04-01T09:43:03.269Z,40.06
2019-04-01T09:44:03.176Z,42.52
2019-04-01T09:45:03.085Z,43.36
2019-04-01T09:46:03.081Z,39.79
2019-04-01T09:47:03.023Z,39.79
2019-04-01T09:48:02.881Z,37.55
2019-04-01T09:49:03.005Z,37.55
2019-04-01T09:50:03.141Z,40.34
2019-04-01T09:51:02.936Z,38.17
2019-04-01T09:52:03.916Z,39.47
2019-04-01T09:53:02.713Z,36.33
2019-04-01T09:54:03.736Z,35.83
2019-04-01T09:55:05.963Z,43.62
2019-04-01T09:56:03.708Z,39.68
2019-04-01T09:57:16.455Z,41.72
2019-04-01T09:58:03.600Z,46.61
2019-04-01T09:59:03.648Z,41.23
2019-04-01T10:00:03.577Z,38.22
2019-04-01T10:01:02.686Z,41.27
2019-04-01T10:02:03.683Z,39.61
2019-04-01T10:03:03.590Z,41.06
2019-04-01T10:04:03.377Z,40.78
2019-04-01T10:05:03.459Z,39.08
2019-04-01T10:06:03.638Z,40.86
2019-04-01T10:07:02.096Z,44.42
2019-04-01T10:08:03.249Z,43.18
2019-04-01T10:09:03.365Z,42.92
2019-04-01T10:10:03.166Z,41.25
2019-04-01T10:11:03.054Z,37.56
2019-04-01T10:12:03.087Z,41.11
2019-04-01T10:13:03.115Z,37.6
2019-04-01T10:14:02.972Z,52.51
2019-04-01T10:15:03.077Z,47.25
2019-04-01T10:16:02.812Z,40.6
2019-04-01T10:17:02.953Z,43.22
2019-04-01T10:18:02.653Z,35.14
2019-04-01T10:19:03.179Z,38.38
2019-04-01T10:20:02.942Z,38.98
2019-04-01T10:21:02.846Z,38.62
2019-04-01T10:22:03.604Z,36.71
2019-04-01T10:23:03.729Z,39.91
2019-04-01T10:24:03.601Z,44.24
2019-04-01T10:25:02.508Z,34.66
2019-04-01T10:26:02.795Z,37.73
2019-04-01T10:27:02.716Z,36.92
2019-04-01T10:28:03.410Z,41.48
2019-04-01T10:29:04.043Z,38.58
2019-04-01T10:30:03.561Z,44.74
2019-04-01T10:31:02.926Z,44.26
2019-04-01T10:32:03.491Z,38.44
2019-04-01T10:33:03.271Z,36.63
2019-04-01T10:34:03.373Z,36.81
2019-04-01T10:35:03.142Z,38.08
2019-04-01T10:36:03.366Z,41.45
2019-04-01T10:37:03.187Z,41.45
2019-04-01T10:38:03.345Z,38.19
2019-04-01T10:39:02.839Z,45.99
2019-04-01T10:40:02.777Z,45.99
2019-04-01T10:41:03.001Z,44.21
2019-04-01T10:42:02.742Z,42.46
2019-04-01T10:43:02.940Z,43.41
2019-04-01T10:44:04.819Z,40.46
2019-04-01T10:45:02.876Z,42.08
2019-04-01T10:46:02.866Z,36.99
2019-04-01T10:47:02.833Z,42.59
2019-04-01T10:48:02.843Z,42.7
2019-04-01T10:49:03.714Z,38.84
2019-04-01T10:50:03.610Z,38.39
2019-04-01T10:51:02.780Z,38.47
2019-04-01T10:52:03.413Z,49.2
2019-04-01T10:53:03.427Z,39.32
2019-04-01T10:54:03.390Z,38.65
2019-04-01T10:55:03.383Z,37.95
2019-04-01T10:56:03.354Z,37.26
2019-04-01T10:57:03.256Z,37.84
2019-04-01T10:58:03.360Z,36.71
2019-04-01T10:59:02.997Z,39.61
2019-04-01T11:00:03.386Z,44.43
2019-04-01T11:01:03.352Z,35.89
2019-04-01T11:02:03.355Z,41.21
2019-04-01T11:03:05.988Z,31.99
2019-04-01T11:04:03.034Z,40.02
2019-04-01T11:05:02.829Z,36.04
2019-04-01T11:06:02.911Z,37.08
2019-04-01T11:07:03.031Z,36.53
2019-04-01T11:08:02.917Z,38.95
2019-04-01T11:09:03.017Z,35.74
2019-04-01T11:10:02.751Z,37.19
2019-04-01T11:11:02.911Z,33.65
2019-04-01T11:12:03.520Z,34.93
2019-04-01T11:13:02.809Z,38.6
2019-04-01T11:14:03.687Z,34.61
2019-04-01T11:15:02.779Z,34.81
2019-04-01T11:16:02.647Z,37.2
2019-04-01T11:17:04.437Z,35.23
2019-04-01T11:18:02.748Z,38.52
2019-04-01T11:19:03.593Z,38.79
2019-04-01T11:20:03.685Z,35.92
2019-04-01T11:21:04.897Z,40.15
2019-04-01T11:22:03.901Z,34.61
2019-04-01T11:23:04.943Z,35.86
2019-04-01T11:24:03.765Z,38.42
2019-04-01T11:25:03.326Z,33.56
2019-04-01T11:26:03.124Z,39.32
2019-04-01T11:27:03.018Z,36.84
2019-04-01T11:28:02.992Z,36.84
2019-04-01T11:29:03.339Z,37.46
2019-04-01T11:30:03.235Z,47.19
2019-04-01T11:31:02.927Z,47.19
2019-04-01T11:32:02.747Z,37.68
2019-04-01T11:33:02.990Z,37.42
2019-04-01T11:34:02.791Z,34.81
2019-04-01T11:35:03.223Z,31.51
2019-04-01T11:36:02.821Z,32.94
2019-04-01T11:37:03.520Z,45.59
2019-04-01T11:38:03.666Z,36.56
2019-04-01T11:39:02.842Z,38.14
2019-04-01T11:40:03.750Z,40.39
2019-04-01T11:41:02.918Z,40.26
2019-04-01T11:42:02.868Z,34.24
2019-04-01T11:43:04.878Z,37.14
2019-04-01T11:44:03.652Z,35.41
2019-04-01T11:45:05.676Z,33.58
2019-04-01T11:46:03.708Z,31.15
2019-04-01T11:47:03.358Z,36.71
2019-04-01T11:48:03.463Z,42.63
2019-04-01T11:49:03.363Z,37.72
2019-04-01T11:50:03.294Z,33.91
2019-04-01T11:51:03.214Z,38.84
2019-04-01T11:52:03.347Z,33.75
2019-04-01T11:53:03.041Z,36.87
2019-04-01T11:54:03.053Z,45.26
2019-04-01T11:55:06.212Z,31.6
2019-04-01T11:56:02.928Z,28.99
2019-04-01T11:57:02.876Z,34.05
2019-04-01T11:58:03.067Z,35.06
2019-04-01T11:59:03.148Z,33.04
2019-04-01T12:00:02.791Z,30.36
2019-04-01T12:01:02.964Z,36.03
2019-04-01T12:02:02.799Z,33.03
2019-04-01T12:03:03.069Z,31.88
2019-04-01T12:04:02.889Z,37.81
2019-04-01T12:05:02.918Z,32.13
2019-04-01T12:06:02.842Z,35.56
2019-04-01T12:07:02.827Z,29.53
2019-04-01T12:08:03.562Z,29.31
2019-04-01T12:09:03.770Z,34.76
2019-04-01T12:10:02.839Z,33.71
2019-04-01T12:11:03.515Z,33.96
2019-04-01T12:12:03.723Z,32.14
2019-04-01T12:13:03.166Z,37.98
2019-04-01T12:14:05.175Z,41.01
2019-04-01T12:15:03.323Z,41.01
2019-04-01T12:16:03.161Z,31.11
2019-04-01T12:17:03.180Z,31.11
2019-04-01T12:18:03.221Z,38.18
2019-04-01T12:19:03.418Z,34.35
2019-04-01T12:20:03.368Z,33.31
2019-04-01T12:21:02.969Z,33.42
2019-04-01T12:22:03.393Z,33.78
2019-04-01T12:23:03.197Z,38.16
2019-04-01T12:24:02.742Z,37.16
2019-04-01T12:25:03.063Z,37.62
2019-04-01T12:26:14.205Z,33.78
2019-04-01T12:27:02.679Z,35.2
2019-04-01T12:28:02.809Z,31.87
2019-04-01T12:29:02.901Z,37.01
2019-04-01T12:30:02.706Z,35.32
2019-04-01T12:31:02.876Z,37.36
2019-04-01T12:32:02.663Z,33.13
2019-04-01T12:33:03.125Z,33.35
2019-04-01T12:34:02.638Z,30.96
2019-04-01T12:35:03.616Z,38.26
2019-04-01T12:36:03.608Z,31.42
2019-04-01T12:37:03.573Z,31.68
2019-04-01T12:38:03.617Z,35.26
2019-04-01T12:39:03.237Z,38.86
2019-04-01T12:40:03.592Z,34.94
2019-04-01T12:41:03.466Z,32.96
2019-04-01T12:42:03.299Z,35.65
2019-04-01T12:43:03.245Z,32.44
2019-04-01T12:44:03.280Z,32.45
2019-04-01T12:45:03.288Z,36.02
2019-04-01T12:46:03.284Z,34.31
2019-04-01T12:47:03.136Z,35.29
2019-04-01T12:48:02.930Z,31.78
2019-04-01T12:49:02.893Z,35.38
2019-04-01T12:50:02.805Z,32.95
2019-04-01T12:51:02.678Z,34.35
2019-04-01T12:52:02.623Z,33.97
2019-04-01T12:53:02.743Z,33.48
2019-04-01T12:54:02.965Z,35.78